createdAt,value
2017-04-02T00:00:41.573Z,52.4
2017-04-02T00:01:43.836Z,52.4
2017-04-02T00:02:45.667Z,52.4
2017-04-02T00:03:47.839Z,52.4
2017-04-02T00:04:49.676Z,52.4
2017-04-02T00:05:51.511Z,52.4
2017-04-02T00:06:53.341Z,52.3
2017-04-02T00:07:55.511Z,52.3
2017-04-02T00:08:57.342Z,52.2
2017-04-02T00:09:59.181Z,52.2
2017-04-02T00:11:01.023Z,52.3
2017-04-02T00:12:02.884Z,52.3
2017-04-02T00:13:04.722Z,52.1
2017-04-02T00:14:06.549Z,52.2
2017-04-02T00:15:08.651Z,52.2
2017-04-02T00:16:10.817Z,52.2
2017-04-02T00:17:12.659Z,52.3
2017-04-02T00:18:14.482Z,52.3
2017-04-02T00:19:16.317Z,52.2
2017-04-02T00:20:18.146Z,52.3
2017-04-02T00:21:20.329Z,52.3
2017-04-02T00:22:22.595Z,52.3
2017-04-02T00:23:24.433Z,52.3
2017-04-02T00:24:26.265Z,52.3
2017-04-02T00:25:28.097Z,52.2
2017-04-02T00:26:29.976Z,52.2
2017-04-02T00:27:32.135Z,52.3
2017-04-02T00:28:33.973Z,52.3
2017-04-02T00:29:35.797Z,52.3
2017-04-02T00:30:38.067Z,52.3
2017-04-02T00:31:39.895Z,52.4
2017-04-02T00:32:41.722Z,52.4
2017-04-02T00:33:43.563Z,52.4
2017-04-02T00:34:45.432Z,52.4
2017-04-02T00:35:47.269Z,52.4
2017-04-02T00:36:49.445Z,52.4
2017-04-02T00:37:51.668Z,52.5
2017-04-02T00:38:53.494Z,52.5
2017-04-02T00:39:55.327Z,52.4
2017-04-02T00:40:57.502Z,52.4
2017-04-02T00:41:59.338Z,52.4
2017-04-02T00:43:01.171Z,52.5
2017-04-02T00:44:02.998Z,52.6
2017-04-02T00:45:04.831Z,52.5
2017-04-02T00:46:06.666Z,52.6
2017-04-02T00:47:08.496Z,52.5
2017-04-02T00:48:10.333Z,52.5
2017-04-02T00:49:12.163Z,52.4
2017-04-02T00:50:14.004Z,52.6
2017-04-02T00:51:15.828Z,52.7
2017-04-02T00:52:17.658Z,52.8
2017-04-02T00:53:19.493Z,52.8
2017-04-02T00:54:21.317Z,52.9
2017-04-02T00:55:23.150Z,53.1
2017-04-02T00:56:24.984Z,53.1
2017-04-02T00:57:27.161Z,53.2
2017-04-02T00:58:29.003Z,53.3
2017-04-02T00:59:30.839Z,53.2
2017-04-02T01:00:32.664Z,53.2
2017-04-02T01:01:34.539Z,53.3
2017-04-02T01:02:36.388Z,53.3
2017-04-02T01:03:38.548Z,53.3
2017-04-02T01:04:40.391Z,53.5
2017-04-02T01:05:42.224Z,53.3
2017-04-02T01:06:44.056Z,53.5
2017-04-02T01:07:45.886Z,53.4
2017-04-02T01:08:47.708Z,53.6
2017-04-02T01:09:49.536Z,53.6
2017-04-02T01:10:51.709Z,53.6
2017-04-02T01:11:53.896Z,53.6
2017-04-02T01:12:55.717Z,53.7
2017-04-02T01:13:57.588Z,53.5
2017-04-02T01:14:59.413Z,53.6
2017-04-02T01:16:01.258Z,53.7
2017-04-02T01:17:03.090Z,53.7
2017-04-02T01:18:04.921Z,53.6
2017-04-02T01:19:06.753Z,53.7
2017-04-02T01:20:08.914Z,54
2017-04-02T01:21:11.238Z,54
2017-04-02T01:22:13.061Z,54
2017-04-02T01:23:14.902Z,54
2017-04-02T01:24:16.734Z,54.2
2017-04-02T01:25:18.565Z,54.4
2017-04-02T01:26:20.405Z,54
2017-04-02T01:27:22.228Z,54.2
2017-04-02T01:28:24.056Z,54.1
2017-04-02T01:29:25.880Z,54.4
2017-04-02T01:30:27.708Z,54.4
2017-04-02T01:31:29.536Z,54.3
2017-04-02T01:32:31.368Z,54.5
2017-04-02T01:33:33.196Z,54.4
2017-04-02T01:34:35.027Z,54.3
2017-04-02T01:35:36.864Z,54.6
2017-04-02T01:36:38.686Z,54.4
2017-04-02T01:37:40.530Z,54.5
2017-04-02T01:38:42.360Z,54.4
2017-04-02T01:39:44.197Z,54.5
2017-04-02T01:40:46.025Z,54.5
2017-04-02T01:41:47.856Z,54.3
2017-04-02T01:42:49.692Z,54.5
2017-04-02T01:43:51.520Z,54.8
2017-04-02T01:44:53.355Z,54.6
2017-04-02T01:45:55.190Z,54.5
2017-04-02T01:46:57.026Z,54.8
2017-04-02T01:47:58.858Z,54.7
2017-04-02T01:49:00.690Z,54.6
2017-04-02T01:50:02.862Z,54.5
2017-04-02T01:51:04.690Z,54.6
2017-04-02T01:52:06.522Z,54.6
2017-04-02T01:53:08.687Z,54.9
2017-04-02T01:54:10.848Z,54.6
2017-04-02T01:55:12.679Z,54.6
2017-04-02T01:56:14.517Z,55
2017-04-02T01:57:16.347Z,55
2017-04-02T01:58:18.182Z,54.8
2017-04-02T01:59:20.013Z,55
2017-04-02T02:00:21.850Z,54.8
2017-04-02T02:01:23.669Z,54.6
2017-04-02T02:02:25.852Z,55
2017-04-02T02:03:27.682Z,54.9
2017-04-02T02:04:29.518Z,54.9
2017-04-02T02:05:31.340Z,54.9
2017-04-02T02:06:33.163Z,55.1
2017-04-02T02:07:34.994Z,55
2017-04-02T02:08:36.826Z,54.8
2017-04-02T02:09:38.658Z,55.1
2017-04-02T02:10:40.482Z,55
2017-04-02T02:11:42.312Z,55.2
2017-04-02T02:12:44.150Z,55.2
2017-04-02T02:13:45.974Z,55.1
2017-04-02T02:14:47.841Z,55.1
2017-04-02T02:15:49.670Z,55.2
2017-04-02T02:16:51.511Z,54.9
2017-04-02T02:17:53.338Z,55.1
2017-04-02T02:18:55.173Z,54.9
2017-04-02T02:19:57.007Z,55
2017-04-02T02:20:58.841Z,55
2017-04-02T02:22:00.672Z,55
2017-04-02T02:23:02.499Z,54.8
2017-04-02T02:24:04.677Z,55.2
2017-04-02T02:25:06.507Z,55
2017-04-02T02:26:08.346Z,55.1
2017-04-02T02:27:10.175Z,54.9
2017-04-02T02:28:12.016Z,55.4
2017-04-02T02:29:13.852Z,55.4
2017-04-02T02:30:15.685Z,55.5
2017-04-02T02:31:17.511Z,55.5
2017-04-02T02:32:19.341Z,55.6
2017-04-02T02:33:21.169Z,55.4
2017-04-02T02:34:23.005Z,55.6
2017-04-02T02:35:24.860Z,55.6
2017-04-02T02:36:26.683Z,55.6
2017-04-02T02:37:29.240Z,55.2
2017-04-02T02:38:31.069Z,55.7
2017-04-02T02:39:32.900Z,55.5
2017-04-02T02:40:35.070Z,55.8
2017-04-02T02:41:36.902Z,55.8
2017-04-02T02:42:39.077Z,55.8
2017-04-02T02:43:40.915Z,55.7
2017-04-02T02:44:42.746Z,55.6
2017-04-02T02:45:44.576Z,55.5
2017-04-02T02:46:46.409Z,55.6
2017-04-02T02:47:48.235Z,55.6
2017-04-02T02:48:50.077Z,55.5
2017-04-02T02:49:51.906Z,55.6
2017-04-02T02:50:53.740Z,55.6
2017-04-02T02:51:55.564Z,55.7
2017-04-02T02:52:57.397Z,55.6
2017-04-02T02:53:59.229Z,55.8
2017-04-02T02:55:01.064Z,55.9
2017-04-02T02:56:03.226Z,55.9
2017-04-02T02:57:05.057Z,55.9
2017-04-02T02:58:06.890Z,55.9
2017-04-02T02:59:08.717Z,55.9
2017-04-02T03:00:10.554Z,55.8
2017-04-02T03:01:12.387Z,55.7
2017-04-02T03:02:14.222Z,55.8
2017-04-02T03:03:16.057Z,55.8
2017-04-02T03:04:17.886Z,55.9
2017-04-02T03:05:19.714Z,56
2017-04-02T03:06:21.545Z,56
2017-04-02T03:07:23.378Z,56
2017-04-02T03:08:25.562Z,56.2
2017-04-02T03:09:27.427Z,56.2
2017-04-02T03:10:29.259Z,56.3
2017-04-02T03:11:31.084Z,56.2
2017-04-02T03:12:33.251Z,56.4
2017-04-02T03:13:35.079Z,56.4
2017-04-02T03:14:36.899Z,56.4
2017-04-02T03:15:38.740Z,56.4
2017-04-02T03:16:40.563Z,56.4
2017-04-02T03:17:42.403Z,56.5
2017-04-02T03:18:44.222Z,56.4
2017-04-02T03:19:46.063Z,56.4
2017-04-02T03:20:47.897Z,56.4
2017-04-02T03:21:49.732Z,56.4
2017-04-02T03:22:51.568Z,56.4
2017-04-02T03:23:53.389Z,56.4
2017-04-02T03:24:55.261Z,56.5
2017-04-02T03:25:57.096Z,56.2
2017-04-02T03:26:59.292Z,56.2
2017-04-02T03:28:01.134Z,56.3
2017-04-02T03:29:02.956Z,56.3
2017-04-02T03:30:04.799Z,56.2
2017-04-02T03:31:06.963Z,56.4
2017-04-02T03:32:08.800Z,56.4
2017-04-02T03:33:10.622Z,56.5
2017-04-02T03:34:12.443Z,56.5
2017-04-02T03:35:14.283Z,56.5
2017-04-02T03:36:16.124Z,56.6
2017-04-02T03:37:17.949Z,56.7
2017-04-02T03:38:19.785Z,56.6
2017-04-02T03:39:21.614Z,56.7
2017-04-02T03:40:23.446Z,56.7
2017-04-02T03:41:25.620Z,56.6
2017-04-02T03:42:27.788Z,56.7
2017-04-02T03:43:29.613Z,56.5
2017-04-02T03:44:31.485Z,56.6
2017-04-02T03:45:33.310Z,56.3
2017-04-02T03:46:35.146Z,56.5
2017-04-02T03:47:36.972Z,56.5
2017-04-02T03:48:38.804Z,56.5
2017-04-02T03:49:40.637Z,56.5
2017-04-02T03:50:42.476Z,56.5
2017-04-02T03:51:44.304Z,56.6
2017-04-02T03:52:46.137Z,56.7
2017-04-02T03:53:47.961Z,56.6
2017-04-02T03:54:49.795Z,56.6
2017-04-02T03:55:51.618Z,56.6
2017-04-02T03:56:53.838Z,56.6
2017-04-02T03:57:55.663Z,56.6
2017-04-02T03:58:57.500Z,56.6
2017-04-02T03:59:59.322Z,56.6
2017-04-02T04:01:01.164Z,56.6
2017-04-02T04:02:03.004Z,56.6
2017-04-02T04:03:04.838Z,56.6
2017-04-02T04:04:06.704Z,56.6
2017-04-02T04:05:08.539Z,56.6
2017-04-02T04:06:10.365Z,56.7
2017-04-02T04:07:12.540Z,56.6
2017-04-02T04:08:14.378Z,56.6
2017-04-02T04:09:16.209Z,56.6
2017-04-02T04:10:18.035Z,56.6
2017-04-02T04:11:19.877Z,56.6
2017-04-02T04:12:21.701Z,56.7
2017-04-02T04:13:23.589Z,56.6
2017-04-02T04:14:25.775Z,56.7
2017-04-02T04:15:27.600Z,56.7
2017-04-02T04:16:29.437Z,56.7
2017-04-02T04:17:31.264Z,56.7
2017-04-02T04:18:33.099Z,56.8
2017-04-02T04:19:34.930Z,56.8
2017-04-02T04:20:36.762Z,56.8
2017-04-02T04:21:38.593Z,56.8
2017-04-02T04:22:40.472Z,56.8
2017-04-02T04:23:42.305Z,56.9
2017-04-02T04:24:44.128Z,56.9
2017-04-02T04:25:45.969Z,56.9
2017-04-02T04:26:48.148Z,56.9
2017-04-02T04:27:49.981Z,56.8
2017-04-02T04:28:51.818Z,56.8
2017-04-02T04:29:53.638Z,56.8
2017-04-02T04:30:55.473Z,56.9
2017-04-02T04:31:57.314Z,57
2017-04-02T04:32:59.143Z,57
2017-04-02T04:34:00.970Z,57.1
2017-04-02T04:35:03.158Z,57.1
2017-04-02T04:36:05.011Z,57.1
2017-04-02T04:37:06.861Z,57.2
2017-04-02T04:38:08.698Z,57.1
2017-04-02T04:39:10.532Z,57.1
2017-04-02T04:40:12.360Z,57.1
2017-04-02T04:41:14.243Z,57.1
2017-04-02T04:42:16.066Z,57.2
2017-04-02T04:43:18.239Z,57.2
2017-04-02T04:44:20.068Z,57.2
2017-04-02T04:45:21.905Z,57.2
2017-04-02T04:46:24.079Z,57.2
2017-04-02T04:47:25.915Z,57.2
2017-04-02T04:48:27.758Z,57.2
2017-04-02T04:49:29.609Z,57.2
2017-04-02T04:50:31.437Z,57.2
2017-04-02T04:51:33.270Z,57.2
2017-04-02T04:52:35.093Z,57.2
2017-04-02T04:53:36.937Z,57.2
2017-04-02T04:54:38.769Z,57.2
2017-04-02T04:55:40.593Z,57.1
2017-04-02T04:56:42.430Z,57.2
2017-04-02T04:57:44.256Z,57.2
2017-04-02T04:58:46.079Z,57.4
2017-04-02T04:59:47.917Z,57.3
2017-04-02T05:00:49.783Z,57.4
2017-04-02T05:01:51.622Z,57.3
2017-04-02T05:02:53.454Z,57.3
2017-04-02T05:03:55.308Z,57.4
2017-04-02T05:04:57.154Z,57.3
2017-04-02T05:05:58.982Z,57.3
2017-04-02T05:07:01.199Z,57.4
2017-04-02T05:08:03.030Z,57.4
2017-04-02T05:09:04.860Z,57.4
2017-04-02T05:10:06.697Z,57.4
2017-04-02T05:11:08.532Z,57.4
2017-04-02T05:12:10.371Z,57.4
2017-04-02T05:13:12.537Z,57.3
2017-04-02T05:14:14.371Z,57.5
2017-04-02T05:15:16.209Z,57.3
2017-04-02T05:16:18.040Z,57.4
2017-04-02T05:17:19.879Z,57.4
2017-04-02T05:18:21.711Z,57.5
2017-04-02T05:19:23.546Z,57.5
2017-04-02T05:20:25.716Z,57.5
2017-04-02T05:21:27.543Z,57.4
2017-04-02T05:22:29.386Z,57.5
2017-04-02T05:23:31.225Z,57.6
2017-04-02T05:24:33.064Z,57.6
2017-04-02T05:25:34.894Z,57.6
2017-04-02T05:26:36.731Z,57.6
2017-04-02T05:27:38.557Z,57.6
2017-04-02T05:28:40.729Z,57.7
2017-04-02T05:29:42.564Z,57.7
2017-04-02T05:30:44.475Z,57.7
2017-04-02T05:31:46.303Z,57.7
2017-04-02T05:32:48.209Z,57.8
2017-04-02T05:33:50.045Z,57.7
2017-04-02T05:34:51.889Z,57.8
2017-04-02T05:35:54.063Z,57.8
2017-04-02T05:36:55.938Z,57.9
2017-04-02T05:37:57.770Z,57.9
2017-04-02T05:38:59.619Z,58
2017-04-02T05:40:01.790Z,58
2017-04-02T05:41:03.622Z,58
2017-04-02T05:42:05.799Z,58
2017-04-02T05:43:07.635Z,58.1
2017-04-02T05:44:09.469Z,58
2017-04-02T05:45:11.303Z,58
2017-04-02T05:46:13.141Z,57.9
2017-04-02T05:47:14.984Z,58
2017-04-02T05:48:16.821Z,58
2017-04-02T05:49:18.643Z,58
2017-04-02T05:50:20.475Z,58
2017-04-02T05:51:22.301Z,58.1
2017-04-02T05:52:24.823Z,58.1
2017-04-02T05:53:26.645Z,58.1
2017-04-02T05:54:28.510Z,58.2
2017-04-02T05:55:30.337Z,58.1
2017-04-02T05:56:32.164Z,58.1
2017-04-02T05:57:33.994Z,58.2
2017-04-02T05:58:35.821Z,58.2
2017-04-02T05:59:37.644Z,58.2
2017-04-02T06:00:39.822Z,58.2
2017-04-02T06:01:41.647Z,58.3
2017-04-02T06:02:43.481Z,58.3
2017-04-02T06:03:45.298Z,58.3
2017-04-02T06:04:47.134Z,58.3
2017-04-02T06:05:48.967Z,58.3
2017-04-02T06:06:50.804Z,58.4
2017-04-02T06:07:52.972Z,58.4
2017-04-02T06:08:54.799Z,58.4
2017-04-02T06:09:56.629Z,58.3
2017-04-02T06:10:58.462Z,58.3
2017-04-02T06:12:00.293Z,58.4
2017-04-02T06:13:02.125Z,58.4
2017-04-02T06:14:03.961Z,58.3
2017-04-02T06:15:05.795Z,58.2
2017-04-02T06:16:07.617Z,58.3
2017-04-02T06:17:09.444Z,58.3
2017-04-02T06:18:11.282Z,58.4
2017-04-02T06:19:13.110Z,58.4
2017-04-02T06:20:15.281Z,58.4
2017-04-02T06:21:17.110Z,58.4
2017-04-02T06:22:18.941Z,58.4
2017-04-02T06:23:20.801Z,58.3
2017-04-02T06:24:22.636Z,58.2
2017-04-02T06:25:24.818Z,58.2
2017-04-02T06:26:26.642Z,58.2
2017-04-02T06:27:28.478Z,58.2
2017-04-02T06:28:30.343Z,58.3
2017-04-02T06:29:32.185Z,58.3
2017-04-02T06:30:34.008Z,58.3
2017-04-02T06:31:35.845Z,58.4
2017-04-02T06:32:37.671Z,58.4
2017-04-02T06:33:39.505Z,58.5
2017-04-02T06:34:41.327Z,58.4
2017-04-02T06:35:43.150Z,58.4
2017-04-02T06:36:44.979Z,58.4
2017-04-02T06:37:46.808Z,58.4
2017-04-02T06:38:48.642Z,58.4
2017-04-02T06:39:50.474Z,58.5
2017-04-02T06:40:52.333Z,58.5
2017-04-02T06:41:54.163Z,58.5
2017-04-02T06:42:56.006Z,58.5
2017-04-02T06:43:57.840Z,58.4
2017-04-02T06:44:59.657Z,58.4
2017-04-02T06:46:01.500Z,58.4
2017-04-02T06:47:03.340Z,58.4
2017-04-02T06:48:05.168Z,58.4
2017-04-02T06:49:07.003Z,58.4
2017-04-02T06:50:09.185Z,58.5
2017-04-02T06:51:11.013Z,58.4
2017-04-02T06:52:12.837Z,58.4
2017-04-02T06:53:14.674Z,58.4
2017-04-02T06:54:16.835Z,58.5
2017-04-02T06:55:18.670Z,58.5
2017-04-02T06:56:20.500Z,58.4
2017-04-02T06:57:22.331Z,58.5
2017-04-02T06:58:24.495Z,58.6
2017-04-02T06:59:26.322Z,58.5
2017-04-02T07:00:28.203Z,58.6
2017-04-02T07:01:30.075Z,58.5
2017-04-02T07:02:32.671Z,58.5
2017-04-02T07:03:34.518Z,58.5
2017-04-02T07:04:36.371Z,58.6
2017-04-02T07:05:38.214Z,58.6
2017-04-02T07:06:40.060Z,58.6
2017-04-02T07:07:41.888Z,58.5
2017-04-02T07:08:43.724Z,58.5
2017-04-02T07:09:45.552Z,58.5
2017-04-02T07:10:47.386Z,58.4
2017-04-02T07:11:49.314Z,58.5
2017-04-02T07:12:51.357Z,58.5
2017-04-02T07:13:53.635Z,58.4
2017-04-02T07:14:55.536Z,58.6
2017-04-02T07:15:57.373Z,58.7
2017-04-02T07:16:59.202Z,58.7
2017-04-02T07:18:01.027Z,58.6
2017-04-02T07:19:02.858Z,58.6
2017-04-02T07:20:04.689Z,58.5
2017-04-02T07:21:06.531Z,58.4
2017-04-02T07:22:08.369Z,58
2017-04-02T07:23:10.193Z,58.5
2017-04-02T07:24:12.418Z,58.5
2017-04-02T07:25:14.752Z,58.5
2017-04-02T07:26:16.938Z,58.5
2017-04-02T07:27:18.769Z,58.5
2017-04-02T07:28:20.601Z,58.5
2017-04-02T07:29:24.540Z,58.2
2017-04-02T07:30:26.379Z,58.6
2017-04-02T07:31:28.205Z,58.5
2017-04-02T07:32:30.041Z,58.5
2017-04-02T07:33:31.864Z,58.5
2017-04-02T07:34:33.698Z,58.5
2017-04-02T07:35:35.522Z,58.5
2017-04-02T07:36:37.360Z,58.5
2017-04-02T07:37:39.199Z,58.3
2017-04-02T07:38:41.070Z,58.2
2017-04-02T07:39:42.894Z,58.4
2017-04-02T07:40:44.723Z,58.4
2017-04-02T07:41:46.557Z,58.4
2017-04-02T07:42:48.383Z,58.4
2017-04-02T07:43:50.234Z,58.4
2017-04-02T07:44:52.058Z,58.4
2017-04-02T07:45:54.229Z,58.5
2017-04-02T07:46:56.064Z,58.5
2017-04-02T07:47:57.899Z,58.6
2017-04-02T07:48:59.725Z,58.6
2017-04-02T07:50:01.558Z,58.6
2017-04-02T07:51:03.390Z,58.4
2017-04-02T07:52:05.230Z,58.4
2017-04-02T07:53:07.063Z,58.6
2017-04-02T07:54:08.891Z,58.7
2017-04-02T07:55:10.721Z,58.8
2017-04-02T07:56:12.544Z,58.8
2017-04-02T07:57:14.374Z,58.8
2017-04-02T07:58:16.201Z,58.9
2017-04-02T07:59:18.035Z,58.9
2017-04-02T08:00:19.861Z,59
2017-04-02T08:01:22.028Z,59
2017-04-02T08:02:23.854Z,59.1
2017-04-02T08:03:26.035Z,59.2
2017-04-02T08:04:27.861Z,59.1
2017-04-02T08:05:29.703Z,59
2017-04-02T08:06:31.534Z,59.2
2017-04-02T08:07:33.368Z,59.3
2017-04-02T08:08:35.204Z,59.2
2017-04-02T08:09:37.361Z,59.1
2017-04-02T08:10:39.197Z,58.8
2017-04-02T08:11:41.031Z,59
2017-04-02T08:12:43.196Z,58.9
2017-04-02T08:13:45.033Z,58.9
2017-04-02T08:14:46.860Z,58.7
2017-04-02T08:15:48.704Z,58.8
2017-04-02T08:16:50.879Z,58.9
2017-04-02T08:17:52.706Z,58.9
2017-04-02T08:18:54.537Z,58.9
2017-04-02T08:19:56.363Z,58.5
2017-04-02T08:20:58.201Z,58.8
2017-04-02T08:22:00.027Z,58.5
2017-04-02T08:23:01.861Z,58.5
2017-04-02T08:24:03.698Z,58.4
2017-04-02T08:25:05.880Z,58.5
2017-04-02T08:26:07.716Z,58.3
2017-04-02T08:27:09.549Z,58.3
2017-04-02T08:28:11.380Z,58.3
2017-04-02T08:29:13.554Z,58.2
2017-04-02T08:30:15.390Z,58.3
2017-04-02T08:31:17.222Z,58.2
2017-04-02T08:32:19.049Z,58.1
2017-04-02T08:33:20.881Z,58.2
2017-04-02T08:34:22.709Z,58.1
2017-04-02T08:35:24.880Z,58.1
2017-04-02T08:36:26.709Z,58.1
2017-04-02T08:37:28.542Z,58.2
2017-04-02T08:38:30.372Z,58
2017-04-02T08:39:32.207Z,58.1
2017-04-02T08:40:34.040Z,58
2017-04-02T08:41:35.869Z,58
2017-04-02T08:42:38.037Z,58
2017-04-02T08:43:39.870Z,58
2017-04-02T08:44:41.692Z,58.1
2017-04-02T08:45:43.530Z,57.9
2017-04-02T08:46:45.358Z,58
2017-04-02T08:47:47.194Z,57.9
2017-04-02T08:48:49.351Z,57.9
2017-04-02T08:49:51.184Z,57.9
2017-04-02T08:50:53.033Z,57.9
2017-04-02T08:51:54.878Z,57.9
2017-04-02T08:52:56.722Z,58
2017-04-02T08:53:58.554Z,58
2017-04-02T08:55:00.396Z,58
2017-04-02T08:56:02.219Z,58.2
2017-04-02T08:57:04.054Z,58.1
2017-04-02T08:58:05.921Z,58.2
2017-04-02T08:59:07.765Z,58.1
2017-04-02T09:00:09.944Z,58.2
2017-04-02T09:01:11.781Z,58.1
2017-04-02T09:02:13.636Z,57.9
2017-04-02T09:03:15.462Z,57.9
2017-04-02T09:04:17.682Z,57.9
2017-04-02T09:05:19.523Z,57.9
2017-04-02T09:06:21.922Z,57.9
2017-04-02T09:07:24.717Z,58
2017-04-02T09:08:26.643Z,58
2017-04-02T09:09:29.593Z,57.8
2017-04-02T09:10:32.007Z,57.8
2017-04-02T09:11:34.163Z,57.8
2017-04-02T09:12:36.110Z,57.7
2017-04-02T09:13:37.955Z,57.8
2017-04-02T09:14:40.138Z,57.8
2017-04-02T09:15:42.050Z,57.7
2017-04-02T09:16:45.751Z,57.6
2017-04-02T09:17:47.676Z,57.6
2017-04-02T09:18:58.107Z,57.6
2017-04-02T09:20:00.883Z,57.5
2017-04-02T09:21:03.518Z,57.6
2017-04-02T09:22:05.847Z,57.8
2017-04-02T09:23:08.245Z,57.8
2017-04-02T09:24:10.086Z,58
2017-04-02T09:25:11.916Z,57.9
2017-04-02T09:26:15.198Z,57.8
2017-04-02T09:27:17.443Z,57.6
2017-04-02T09:28:19.271Z,57.6
2017-04-02T09:29:21.115Z,57.6
2017-04-02T09:30:24.487Z,57.3
2017-04-02T09:31:26.411Z,57.2
2017-04-02T09:32:28.591Z,57.3
2017-04-02T09:33:30.486Z,57.3
2017-04-02T09:34:32.314Z,57.5
2017-04-02T09:35:34.141Z,57.5
2017-04-02T09:36:36.809Z,57.5
2017-04-02T09:37:38.656Z,57.4
2017-04-02T09:38:40.951Z,57.3
2017-04-02T09:39:43.549Z,57.3
2017-04-02T09:40:45.808Z,57.2
2017-04-02T09:41:48.600Z,57.2
2017-04-02T09:42:50.442Z,57.4
2017-04-02T09:43:52.268Z,57.5
2017-04-02T09:44:54.404Z,57.6
2017-04-02T09:45:56.436Z,57.8
2017-04-02T09:46:58.437Z,58.1
2017-04-02T09:48:01.252Z,58.1
2017-04-02T09:49:03.126Z,57.8
2017-04-02T09:50:05.295Z,57.6
2017-04-02T09:51:07.262Z,57.3
2017-04-02T09:52:09.094Z,56.9
2017-04-02T09:53:11.085Z,56.8
2017-04-02T09:54:13.220Z,56.6
2017-04-02T09:55:15.065Z,56.4
2017-04-02T09:56:16.891Z,56.4
2017-04-02T09:57:18.727Z,56.3
2017-04-02T09:58:20.574Z,56.1
2017-04-02T09:59:22.706Z,56.2
2017-04-02T10:00:24.541Z,56.2
2017-04-02T10:01:26.382Z,56.2
2017-04-02T10:02:28.221Z,56.3
2017-04-02T10:03:30.060Z,56.3
2017-04-02T10:04:32.242Z,56.3
2017-04-02T10:05:34.140Z,56.4
2017-04-02T10:06:35.983Z,56.7
2017-04-02T10:07:37.832Z,56.9
2017-04-02T10:08:39.663Z,56.9
2017-04-02T10:09:41.507Z,56.8
2017-04-02T10:10:43.665Z,56.6
2017-04-02T10:11:45.724Z,56.6
2017-04-02T10:12:47.563Z,56.7
2017-04-02T10:13:49.449Z,56.5
2017-04-02T10:14:51.286Z,56.4
2017-04-02T10:15:53.490Z,56.4
2017-04-02T10:16:55.320Z,56.4
2017-04-02T10:17:57.174Z,56.5
2017-04-02T10:18:59.007Z,56.5
2017-04-02T10:20:00.855Z,56.6
2017-04-02T10:21:02.688Z,56.8
2017-04-02T10:22:04.527Z,56.8
2017-04-02T10:23:06.361Z,56.7
2017-04-02T10:24:08.208Z,56.4
2017-04-02T10:25:10.056Z,56
2017-04-02T10:26:11.900Z,55.6
2017-04-02T10:27:14.007Z,55
2017-04-02T10:28:15.894Z,55
2017-04-02T10:29:17.744Z,54.8
2017-04-02T10:30:19.582Z,54.4
2017-04-02T10:31:21.428Z,54.5
2017-04-02T10:32:23.265Z,54.7
2017-04-02T10:33:25.114Z,54.7
2017-04-02T10:34:26.949Z,54.8
2017-04-02T10:35:28.797Z,54.7
2017-04-02T10:36:30.867Z,54.3
2017-04-02T10:37:32.716Z,53.9
2017-04-02T10:38:34.550Z,53.3
2017-04-02T10:39:36.395Z,53.1
2017-04-02T10:40:38.249Z,53
2017-04-02T10:41:40.131Z,52.8
2017-04-02T10:42:41.971Z,52.4
2017-04-02T10:43:43.820Z,52.3
2017-04-02T10:44:45.911Z,52.3
2017-04-02T10:45:48.106Z,52.2
2017-04-02T10:46:49.962Z,52.2
2017-04-02T10:47:51.813Z,52.3
2017-04-02T10:48:53.673Z,52.3
2017-04-02T10:49:55.517Z,52.2
2017-04-02T10:50:57.771Z,52
2017-04-02T10:51:59.614Z,51.9
2017-04-02T10:53:01.457Z,51.8
2017-04-02T10:54:03.297Z,51.2
2017-04-02T10:55:05.144Z,50.8
2017-04-02T10:56:06.987Z,50.4
2017-04-02T10:57:09.214Z,50.5
2017-04-02T10:58:11.050Z,51
2017-04-02T10:59:12.902Z,51.2
2017-04-02T11:00:14.759Z,51.5
2017-04-02T11:01:16.940Z,51.6
2017-04-02T11:02:18.784Z,51.7
2017-04-02T11:03:20.625Z,51.3
2017-04-02T11:04:22.688Z,51.1
2017-04-02T11:05:24.537Z,50.9
2017-04-02T11:06:26.385Z,50.8
2017-04-02T11:07:28.229Z,50.2
2017-04-02T11:08:30.077Z,50.3
2017-04-02T11:09:31.928Z,50.2
2017-04-02T11:10:33.841Z,50.2
2017-04-02T11:11:35.683Z,50.2
2017-04-02T11:12:37.531Z,50.4
2017-04-02T11:13:39.375Z,50.6
2017-04-02T11:14:41.225Z,50.5
2017-04-02T11:15:43.075Z,50.5
2017-04-02T11:16:44.926Z,50.6
2017-04-02T11:17:46.771Z,50.8
2017-04-02T11:18:48.621Z,50.6
2017-04-02T11:19:50.461Z,50.5
2017-04-02T11:20:52.298Z,50.4
2017-04-02T11:21:54.142Z,50.4
2017-04-02T11:22:55.992Z,50.2
2017-04-02T11:23:57.846Z,50
2017-04-02T11:24:59.695Z,49.8
2017-04-02T11:26:01.545Z,49.6
2017-04-02T11:27:03.759Z,49.3
2017-04-02T11:28:05.610Z,49
2017-04-02T11:29:07.799Z,49
2017-04-02T11:30:09.643Z,48.7
2017-04-02T11:31:11.495Z,48.9
2017-04-02T11:32:13.351Z,48.8
2017-04-02T11:33:15.569Z,48.8
2017-04-02T11:34:17.406Z,48.8
2017-04-02T11:35:19.265Z,48.8
2017-04-02T11:36:21.113Z,48.8
2017-04-02T11:37:22.967Z,48.8
2017-04-02T11:38:25.153Z,48.6
2017-04-02T11:39:26.993Z,49
2017-04-02T11:40:28.843Z,49.4
2017-04-02T11:41:30.693Z,49.6
2017-04-02T11:42:32.613Z,49.5
2017-04-02T11:43:34.462Z,49.5
2017-04-02T11:44:36.310Z,49.5
2017-04-02T11:45:38.160Z,49.3
2017-04-02T11:46:40.029Z,48.9
2017-04-02T11:47:41.872Z,48.4
2017-04-02T11:48:44.057Z,48.4
2017-04-02T11:49:45.901Z,48.2
2017-04-02T11:50:48.090Z,47.9
2017-04-02T11:51:49.930Z,47.7
2017-04-02T11:52:51.782Z,47.8
2017-04-02T11:53:53.620Z,48.1
2017-04-02T11:54:55.471Z,48.4
2017-04-02T11:55:57.307Z,48.3
2017-04-02T11:56:59.157Z,48.3
2017-04-02T11:58:00.997Z,48.3
2017-04-02T11:59:02.847Z,48.7
2017-04-02T12:00:04.690Z,48.8
2017-04-02T12:01:06.531Z,48.9
2017-04-02T12:02:08.727Z,49.3
2017-04-02T12:03:10.574Z,49.3
2017-04-02T12:04:12.770Z,49.3
2017-04-02T12:05:14.617Z,49.6
2017-04-02T12:06:16.498Z,49.2
2017-04-02T12:07:18.678Z,49
2017-04-02T12:08:20.866Z,49.2
2017-04-02T12:09:22.697Z,49.5
2017-04-02T12:10:24.544Z,49.4
2017-04-02T12:11:26.377Z,49.5
2017-04-02T12:12:28.222Z,49.5
2017-04-02T12:13:30.061Z,49
2017-04-02T12:14:31.909Z,48.8
2017-04-02T12:15:33.741Z,48.8
2017-04-02T12:16:35.592Z,48.9
2017-04-02T12:17:37.438Z,48.9
2017-04-02T12:18:39.289Z,49
2017-04-02T12:19:41.136Z,48.9
2017-04-02T12:20:43.040Z,48.9
2017-04-02T12:21:44.927Z,48.9
2017-04-02T12:22:46.769Z,48.9
2017-04-02T12:23:48.619Z,48.8
2017-04-02T12:24:50.457Z,48.6
2017-04-02T12:25:52.308Z,48.4
2017-04-02T12:26:54.158Z,47.8
2017-04-02T12:27:55.998Z,47.5
2017-04-02T12:28:57.842Z,47.4
2017-04-02T12:29:59.692Z,47.2
2017-04-02T12:31:01.867Z,46.9
2017-04-02T12:32:03.714Z,46.7
2017-04-02T12:33:05.564Z,46.7
2017-04-02T12:34:07.412Z,46.7
2017-04-02T12:35:09.266Z,46.9
2017-04-02T12:36:11.123Z,46.8
2017-04-02T12:37:12.964Z,46.5
2017-04-02T12:38:14.816Z,46.4
2017-04-02T12:39:16.997Z,46.2
2017-04-02T12:40:18.850Z,46.2
2017-04-02T12:41:20.695Z,46.3
2017-04-02T12:42:22.579Z,46.3
2017-04-02T12:43:24.419Z,46.1
2017-04-02T12:44:26.274Z,46
2017-04-02T12:45:28.122Z,46.3
2017-04-02T12:46:29.964Z,46.5
2017-04-02T12:47:31.814Z,46.4
2017-04-02T12:48:33.661Z,46.4
2017-04-02T12:49:35.510Z,46.4
2017-04-02T12:50:37.352Z,46.4
2017-04-02T12:51:39.211Z,46.5
2017-04-02T12:52:41.062Z,46.4
2017-04-02T12:53:42.907Z,46.2
2017-04-02T12:54:44.760Z,45.9
2017-04-02T12:55:46.607Z,45.7
2017-04-02T12:56:48.457Z,45.5
2017-04-02T12:57:50.303Z,45.5
2017-04-02T12:58:52.152Z,45.6
2017-04-02T12:59:54.001Z,45.9
2017-04-02T13:00:55.845Z,45.9
2017-04-02T13:01:57.697Z,46.2
2017-04-02T13:02:59.879Z,46.3
2017-04-02T13:04:01.718Z,46.3
2017-04-02T13:05:03.920Z,46.3
2017-04-02T13:06:06.105Z,46.2
2017-04-02T13:07:07.946Z,46.2
2017-04-02T13:08:09.789Z,46.3
2017-04-02T13:09:11.642Z,46.5
2017-04-02T13:10:13.487Z,46.8
2017-04-02T13:11:15.328Z,46.8
2017-04-02T13:12:17.173Z,46.8
2017-04-02T13:13:19.023Z,46.8
2017-04-02T13:14:20.861Z,46.9
2017-04-02T13:15:22.708Z,46.9
2017-04-02T13:16:24.554Z,46.8
2017-04-02T13:17:26.397Z,46.9
2017-04-02T13:18:28.245Z,47
2017-04-02T13:19:30.090Z,47.2
2017-04-02T13:20:31.932Z,47.2
2017-04-02T13:21:33.782Z,47.3
2017-04-02T13:22:35.623Z,47.4
2017-04-02T13:23:37.462Z,47.2
2017-04-02T13:24:39.308Z,47.3
2017-04-02T13:25:41.153Z,47.5
2017-04-02T13:26:43.006Z,47.5
2017-04-02T13:27:44.847Z,47.6
2017-04-02T13:28:46.688Z,47.8
2017-04-02T13:29:48.879Z,47.8
2017-04-02T13:30:50.723Z,47.9
2017-04-02T13:31:52.557Z,48
2017-04-02T13:32:54.407Z,48
2017-04-02T13:33:56.285Z,48
2017-04-02T13:34:58.125Z,47.9
2017-04-02T13:36:00.311Z,47.9
2017-04-02T13:37:02.159Z,48
2017-04-02T13:38:03.999Z,48.3
2017-04-02T13:39:05.836Z,48.4
2017-04-02T13:40:07.686Z,48.5
2017-04-02T13:41:09.537Z,48.5
2017-04-02T13:42:11.726Z,48.4
2017-04-02T13:43:13.574Z,48.4
2017-04-02T13:44:15.419Z,48.2
2017-04-02T13:45:17.594Z,48.1
2017-04-02T13:46:19.444Z,47.7
2017-04-02T13:47:21.319Z,47.5
2017-04-02T13:48:23.521Z,46.9